Time;durP1;ratioP1;P1;durP2;ratioP2;P2;SDS_P1;SDS_P2;PMS_P1;PMS_P2;Temp;Humidity;BMP_temperature;BMP_pressure;BME280_temperature;BME280_humidity;BME280_pressure;Samples;Min_cycle;Max_cycle;Signal;HPM_P1;HPM_P2
2021/09/13 00:00:25;;;;;;;42.37;36.20;;;;;;;15.90;100.00;99074.13;2090938;28;20426;-76
2021/09/13 00:01:27;;;;;;;41.43;36.20;;;;;;;15.87;100.00;99066.72;2090897;28;20194;-76
2021/09/13 00:02:31;;;;;;;44.50;34.70;;;;;;;15.85;100.00;99071.66;2090869;28;20425;-76
2021/09/13 00:03:33;;;;;;;45.10;35.97;;;;;;;15.83;100.00;99067.38;2081945;28;20457;-76
2021/09/13 00:04:35;;;;;;;46.07;36.23;;;;;;;15.83;100.00;99064.69;2082021;28;20418;-76
2021/09/13 00:05:37;;;;;;;39.73;34.97;;;;;;;15.82;100.00;99059.66;2090838;28;20475;-76
2021/09/13 00:06:40;;;;;;;38.37;33.87;;;;;;;15.82;100.00;99070.41;2090885;28;20464;-76
2021/09/13 00:07:41;;;;;;;45.57;36.30;;;;;;;15.79;100.00;99063.75;2090803;28;20931;-76
2021/09/13 00:08:42;;;;;;;40.73;34.77;;;;;;;15.76;100.00;99061.75;2081941;28;20778;-77
2021/09/13 00:09:44;;;;;;;39.30;34.40;;;;;;;15.76;100.00;99067.13;2073470;28;20303;-77
2021/09/13 00:10:48;;;;;;;40.03;35.67;;;;;;;15.74;100.00;99061.28;2074117;28;21003;-76
2021/09/13 00:11:51;;;;;;;41.10;36.70;;;;;;;15.72;100.00;99063.50;2082177;28;20928;-77
2021/09/13 00:12:53;;;;;;;45.87;34.93;;;;;;;15.71;100.00;99063.84;2081910;28;20526;-76
2021/09/13 00:13:54;;;;;;;43.20;36.13;;;;;;;15.69;100.00;99058.78;2082244;28;20465;-77
2021/09/13 00:14:57;;;;;;;45.47;36.90;;;;;;;15.70;100.00;99062.28;2081895;28;20434;-76
2021/09/13 00:16:02;;;;;;;44.23;36.77;;;;;;;15.70;100.00;99063.06;2073766;28;20988;-76
2021/09/13 00:17:06;;;;;;;41.63;37.13;;;;;;;15.68;100.00;99065.28;2082810;28;20411;-76
2021/09/13 00:18:08;;;;;;;41.42;36.90;;;;;;;15.65;100.00;99071.34;2081817;28;20450;-76
2021/09/13 00:19:10;;;;;;;52.30;37.90;;;;;;;15.64;100.00;99067.09;2081996;28;20188;-77
2021/09/13 00:20:11;;;;;;;44.92;37.50;;;;;;;15.62;100.00;99063.13;2081764;28;20803;-76
2021/09/13 00:21:14;;;;;;;43.17;35.90;;;;;;;15.61;100.00;99070.41;2082111;28;20187;-76
2021/09/13 00:22:14;;;;;;;43.15;36.25;;;;;;;15.63;100.00;99073.56;2090951;28;20191;-76
2021/09/13 00:23:17;;;;;;;48.47;36.73;;;;;;;15.61;100.00;99072.31;2081875;28;20287;-76
2021/09/13 00:24:20;;;;;;;43.33;36.77;;;;;;;15.60;100.00;99076.88;2082091;28;20191;-76
2021/09/13 00:25:22;;;;;;;41.63;37.03;;;;;;;15.58;100.00;99068.34;2081762;28;20450;-76
2021/09/13 00:26:23;;;;;;;39.63;35.28;;;;;;;15.58;100.00;99075.63;2081903;28;20274;-76
2021/09/13 00:27:24;;;;;;;43.00;36.37;;;;;;;15.57;100.00;99072.16;2090674;28;20195;-76
2021/09/13 00:28:25;;;;;;;46.53;37.07;;;;;;;15.53;100.00;99072.00;2081808;28;20263;-77
2021/09/13 00:29:27;;;;;;;42.03;37.27;;;;;;;15.53;100.00;99074.72;2081724;28;20533;-76
2021/09/13 00:30:28;;;;;;;50.30;38.03;;;;;;;15.53;100.00;99073.91;2081791;28;20196;-76
2021/09/13 00:31:30;;;;;;;43.90;37.70;;;;;;;15.53;100.00;99076.59;2081798;28;20823;-76
2021/09/13 00:32:33;;;;;;;41.78;36.80;;;;;;;15.51;100.00;99070.78;2081762;28;20454;-77
2021/09/13 00:33:36;;;;;;;47.23;37.97;;;;;;;15.50;100.00;99075.38;2082023;28;20290;-76
2021/09/13 00:34:38;;;;;;;51.42;37.83;;;;;;;15.49;100.00;99067.63;2090758;28;20440;-77
2021/09/13 00:35:40;;;;;;;42.90;37.23;;;;;;;15.46;100.00;99062.91;2081620;28;20654;-77
2021/09/13 00:36:42;;;;;;;42.58;36.92;;;;;;;15.44;100.00;99070.50;2073779;28;20196;-76
2021/09/13 00:37:45;;;;;;;44.28;36.40;;;;;;;15.41;100.00;99068.47;2082027;28;20191;-76
2021/09/13 00:38:46;;;;;;;45.53;38.17;;;;;;;15.39;100.00;99068.03;2090436;28;20191;-77
2021/09/13 00:39:48;;;;;;;46.65;37.50;;;;;;;15.35;100.00;99067.09;2080589;28;20443;-77
2021/09/13 00:40:51;;;;;;;44.80;38.38;;;;;;;15.36;100.00;99074.03;2082089;28;20190;-77
2021/09/13 00:41:53;;;;;;;47.23;36.77;;;;;;;15.32;100.00;99070.44;2090738;28;20634;-76
2021/09/13 00:42:55;;;;;;;46.08;37.38;;;;;;;15.32;100.00;99067.75;2081657;28;20566;-76
2021/09/13 00:43:59;;;;;;;45.20;38.58;;;;;;;15.32;100.00;99073.13;2073577;28;20207;-76
2021/09/13 00:45:00;;;;;;;48.10;36.92;;;;;;;15.32;100.00;99071.22;2073809;28;20208;-77
2021/09/13 00:46:02;;;;;;;47.10;37.95;;;;;;;15.29;100.00;99066.53;2081679;28;20215;-77
2021/09/13 00:47:03;;;;;;;49.45;38.00;;;;;;;15.33;100.00;99066.66;2081564;28;20574;-76
2021/09/13 00:48:05;;;;;;;45.53;37.60;;;;;;;15.30;100.00;99070.00;2073474;28;20192;-77
2021/09/13 00:49:06;;;;;;;45.30;37.35;;;;;;;15.26;100.00;99061.78;2082024;28;20430;-76
2021/09/13 00:50:10;;;;;;;41.30;36.27;;;;;;;15.23;100.00;99073.19;2081276;28;20200;-76
2021/09/13 00:51:11;;;;;;;48.53;37.90;;;;;;;15.21;100.00;99070.84;2082022;28;20263;-77
2021/09/13 00:52:14;;;;;;;48.00;36.73;;;;;;;15.18;100.00;99065.31;2081558;28;20201;-76
2021/09/13 00:53:15;;;;;;;49.08;37.25;;;;;;;15.18;100.00;99070.69;2081869;28;20957;-77
2021/09/13 00:54:16;;;;;;;41.63;37.13;;;;;;;15.14;100.00;99065.19;2081576;28;20641;-76
2021/09/13 00:55:18;;;;;;;45.05;37.72;;;;;;;15.14;100.00;99069.78;2081693;28;20199;-76
2021/09/13 00:56:20;;;;;;;44.83;38.22;;;;;;;15.11;100.00;99060.44;2090727;28;20641;-77
2021/09/13 00:57:21;;;;;;;44.67;38.28;;;;;;;15.11;100.00;99060.44;2090675;28;20244;-76
2021/09/13 00:58:25;;;;;;;45.33;38.10;;;;;;;15.10;100.00;99060.78;2081537;28;20200;-77
2021/09/13 00:59:26;;;;;;;42.55;37.75;;;;;;;15.09;100.00;99059.19;2081946;28;20458;-76
2021/09/13 01:00:28;;;;;;;49.37;39.37;;;;;;;15.09;100.00;99059.97;2081562;28;20732;-77
2021/09/13 01:01:29;;;;;;;43.42;36.85;;;;;;;15.09;100.00;99059.19;2081834;28;20188;-76
2021/09/13 01:02:30;;;;;;;49.03;37.57;;;;;;;15.07;100.00;99051.47;2081608;28;20314;-77
2021/09/13 01:03:33;;;;;;;44.05;38.25;;;;;;;15.05;100.00;99059.06;2073518;28;20254;-77
2021/09/13 01:04:36;;;;;;;45.43;35.67;;;;;;;15.02;100.00;99051.66;2081487;28;20200;-77
2021/09/13 01:05:37;;;;;;;42.60;36.73;;;;;;;15.01;100.00;99057.34;2073561;28;20455;-77
2021/09/13 01:06:39;;;;;;;40.77;36.23;;;;;;;14.96;100.00;99059.13;2081501;28;21011;-77
2021/09/13 01:07:41;;;;;;;42.63;36.13;;;;;;;14.93;100.00;99053.59;2081856;28;20550;-76
2021/09/13 01:08:43;;;;;;;41.03;34.53;;;;;;;14.90;100.00;99052.34;2081430;28;20517;-76
2021/09/13 01:09:43;;;;;;;39.35;35.00;;;;;;;14.84;100.00;99053.63;2073373;28;20594;-77
2021/09/13 01:10:48;;;;;;;43.57;35.87;;;;;;;14.83;100.00;99048.59;2073289;28;20196;-76
2021/09/13 01:11:49;;;;;;;44.72;37.88;;;;;;;14.83;100.00;99054.75;2073788;28;20196;-77
2021/09/13 01:12:51;;;;;;;45.75;38.20;;;;;;;14.81;100.00;99054.28;2073374;28;20247;-76
2021/09/13 01:13:51;;;;;;;47.22;38.30;;;;;;;14.82;100.00;99052.41;2073334;28;20299;-77
2021/09/13 01:14:54;;;;;;;47.23;38.57;;;;;;;14.82;100.00;99049.72;2073437;28;20189;-77
2021/09/13 01:15:55;;;;;;;46.70;37.23;;;;;;;14.80;100.00;99050.03;2073340;28;20455;-77
2021/09/13 01:16:57;;;;;;;42.33;36.50;;;;;;;14.80;100.00;99046.56;2073477;28;20579;-77
2021/09/13 01:17:58;;;;;;;44.15;37.78;;;;;;;14.77;100.00;99050.69;2081758;28;20241;-76
2021/09/13 01:19:00;;;;;;;45.30;37.27;;;;;;;14.77;100.00;99053.38;2081402;28;20198;-76
2021/09/13 01:20:02;;;;;;;48.08;38.22;;;;;;;14.76;100.00;99045.63;2081821;28;20191;-76
2021/09/13 01:21:06;;;;;;;42.72;37.13;;;;;;;14.73;100.00;99057.81;2081421;28;20242;-77
2021/09/13 01:22:10;;;;;;;42.23;37.00;;;;;;;14.72;100.00;99061.63;2081576;28;20198;-77
2021/09/13 01:23:26;;;;;;;43.85;37.22;;;;;;;14.70;100.00;99055.78;2081750;28;20431;-76
2021/09/13 01:24:34;;;;;;;44.03;37.50;;;;;;;14.68;100.00;99058.78;2081477;28;20202;-76
2021/09/13 01:25:41;;;;;;;47.22;39.22;;;;;;;14.67;100.00;99054.50;2081501;28;20184;-76
2021/09/13 01:26:52;;;;;;;53.72;40.20;;;;;;;14.68;100.00;99057.97;2074806;28;20207;-77
2021/09/13 01:27:58;;;;;;;46.25;39.10;;;;;;;14.68;100.00;99056.09;2074055;28;20246;-76
2021/09/13 01:29:02;;;;;;;47.63;39.60;;;;;;;14.66;100.00;99050.25;2073744;28;20618;-77
2021/09/13 01:30:08;;;;;;;50.78;39.80;;;;;;;14.70;100.00;99048.50;2073537;28;20203;-77
2021/09/13 01:31:10;;;;;;;48.85;40.55;;;;;;;14.69;100.00;99046.94;2081612;28;20273;-77
2021/09/13 01:32:18;;;;;;;47.55;39.80;;;;;;;14.70;100.00;99043.13;2081557;28;20291;-76
2021/09/13 01:33:30;;;;;;;49.03;38.80;;;;;;;14.72;100.00;99039.34;2074657;28;20354;-76
2021/09/13 01:34:31;;;;;;;45.80;38.42;;;;;;;14.70;100.00;99043.13;2081561;28;20214;-76
2021/09/13 01:35:32;;;;;;;51.73;39.40;;;;;;;14.71;100.00;99038.56;2081431;28;20223;-76
2021/09/13 01:36:33;;;;;;;56.45;40.25;;;;;;;14.72;100.00;99045.50;2073259;28;20211;-77
2021/09/13 01:37:40;;;;;;;50.55;39.30;;;;;;;14.73;100.00;99043.59;2081147;28;20192;-76
2021/09/13 01:38:48;;;;;;;53.35;40.33;;;;;;;14.73;100.00;99043.59;2081473;28;20577;-76
2021/09/13 01:39:52;;;;;;;48.55;40.10;;;;;;;14.73;100.00;99046.28;2081632;28;20192;-76
2021/09/13 01:40:53;;;;;;;57.33;40.00;;;;;;;14.71;100.00;99038.56;2081510;28;20195;-77
2021/09/13 01:41:54;;;;;;;55.80;41.55;;;;;;;14.73;100.00;99040.91;2073274;28;20203;-77
2021/09/13 01:43:02;;;;;;;49.00;39.08;;;;;;;14.73;100.00;99040.91;2073970;28;20188;-76
2021/09/13 01:44:06;;;;;;;47.83;39.28;;;;;;;14.74;100.00;99048.63;2081379;28;20203;-77
2021/09/13 01:45:07;;;;;;;50.75;39.25;;;;;;;14.74;100.00;99040.59;2081447;28;20593;-76
2021/09/13 01:46:14;;;;;;;53.95;39.85;;;;;;;14.75;100.00;99049.44;2074006;28;20180;-76
2021/09/13 01:47:22;;;;;;;50.28;40.88;;;;;;;14.73;100.00;99043.59;2081398;28;20199;-77
2021/09/13 01:48:24;;;;;;;53.47;41.42;;;;;;;14.70;100.00;99040.44;2081403;28;20693;-76
2021/09/13 01:49:27;;;;;;;54.70;41.08;;;;;;;14.72;100.00;99047.41;2073234;28;20192;-76
2021/09/13 01:50:31;;;;;;;52.60;41.35;;;;;;;14.72;100.00;99048.19;2073479;28;20195;-76
2021/09/13 01:51:32;;;;;;;48.85;39.30;;;;;;;14.72;100.00;99050.88;2074806;28;20605;-77
2021/09/13 01:52:38;;;;;;;51.60;40.30;;;;;;;14.75;100.00;99054.78;2083103;28;20320;-77
2021/09/13 01:53:41;;;;;;;51.88;40.85;;;;;;;14.75;100.00;99041.38;2075153;28;20605;-77
2021/09/13 01:54:44;;;;;;;54.67;39.97;;;;;;;14.75;100.00;99046.75;2075084;28;20200;-77
2021/09/13 01:55:47;;;;;;;53.60;40.00;;;;;;;14.78;100.00;99054.97;2082604;28;20629;-77
2021/09/13 01:56:49;;;;;;;52.10;41.00;;;;;;;14.81;100.00;99053.50;2074774;28;20208;-77
2021/09/13 01:58:02;;;;;;;56.92;39.92;;;;;;;14.79;100.00;99061.13;2076715;28;20204;-77
2021/09/13 01:59:04;;;;;;;50.00;40.57;;;;;;;14.79;100.00;99056.53;2083069;28;20221;-77
2021/09/13 02:00:07;;;;;;;48.88;38.97;;;;;;;14.78;100.00;99054.97;2082941;28;20735;-77
2021/09/13 02:01:18;;;;;;;51.08;40.63;;;;;;;14.79;100.00;99055.75;2084225;28;20633;-77
2021/09/13 02:02:18;;;;;;;50.17;39.65;;;;;;;14.80;100.00;99057.31;2082961;28;20203;-77
2021/09/13 02:03:22;;;;;;;53.55;40.25;;;;;;;14.79;100.00;99053.84;2074999;28;20654;-77
2021/09/13 02:04:26;;;;;;;49.42;39.13;;;;;;;14.81;100.00;99058.88;2083455;28;20198;-76
2021/09/13 02:05:27;;;;;;;57.10;39.42;;;;;;;14.81;100.00;99053.50;2082915;28;20245;-77
2021/09/13 02:06:31;;;;;;;54.03;40.00;;;;;;;14.81;100.00;99056.19;2082966;28;20218;-77
2021/09/13 02:07:33;;;;;;;45.17;38.10;;;;;;;14.80;100.00;99057.31;2074825;28;20200;-77
2021/09/13 02:08:35;;;;;;;47.30;38.22;;;;;;;14.79;100.00;99053.06;2074751;28;20624;-76
2021/09/13 02:09:38;;;;;;;48.88;38.15;;;;;;;14.81;100.00;99064.25;2075251;28;20199;-76
2021/09/13 02:10:48;;;;;;;48.47;38.58;;;;;;;14.80;100.00;99062.69;2076021;28;20231;-77
2021/09/13 02:11:49;;;;;;;48.45;38.85;;;;;;;14.80;100.00;99060.78;2074849;28;20580;-77
2021/09/13 02:12:55;;;;;;;46.88;38.00;;;;;;;14.80;100.00;99068.06;2075193;28;20196;-76
2021/09/13 02:14:02;;;;;;;55.72;39.20;;;;;;;14.81;100.00;99058.88;2082802;28;20203;-76
2021/09/13 02:15:05;;;;;;;49.95;39.17;;;;;;;14.82;100.00;99065.81;2074801;28;20566;-76
2021/09/13 02:16:09;;;;;;;48.30;37.65;;;;;;;14.83;100.00;99062.81;2075371;28;20258;-76
2021/09/13 02:17:14;;;;;;;48.97;38.63;;;;;;;14.85;100.00;99065.16;2074970;28;20196;-77
2021/09/13 02:18:17;;;;;;;44.78;36.85;;;;;;;14.85;100.00;99065.16;2074963;28;20698;-77
2021/09/13 02:19:25;;;;;;;45.47;37.63;;;;;;;14.88;100.00;99068.00;2075042;28;20706;-76
2021/09/13 02:20:25;;;;;;;45.47;36.95;;;;;;;14.89;100.00;99061.53;2083109;28;20187;-76
2021/09/13 02:21:29;;;;;;;47.53;37.57;;;;;;;14.90;100.00;99071.16;2082750;28;20291;-77
2021/09/13 02:22:30;;;;;;;41.28;36.75;;;;;;;14.90;100.00;99073.06;2075003;28;20588;-76
2021/09/13 02:23:33;;;;;;;47.10;37.38;;;;;;;14.90;100.00;99070.38;2074641;28;20287;-77
2021/09/13 02:24:40;;;;;;;49.03;37.85;;;;;;;14.90;100.00;99062.31;2075564;28;20216;-77
2021/09/13 02:25:42;;;;;;;47.40;37.63;;;;;;;14.93;100.00;99072.41;2074711;28;20207;-77
2021/09/13 02:26:45;;;;;;;45.17;36.88;;;;;;;14.94;100.00;99076.66;2075164;28;20203;-78
2021/09/13 02:27:47;;;;;;;47.88;36.80;;;;;;;14.94;100.00;99071.28;2082968;28;20210;-77
2021/09/13 02:28:49;;;;;;;46.13;37.20;;;;;;;14.92;100.00;99068.16;2082705;28;20257;-77
2021/09/13 02:29:50;;;;;;;45.35;38.13;;;;;;;14.93;100.00;99072.41;2074333;28;20655;-77
2021/09/13 02:30:51;;;;;;;48.63;38.75;;;;;;;14.94;100.00;99068.59;2074574;28;20228;-77
2021/09/13 02:31:54;;;;;;;44.63;37.92;;;;;;;14.95;100.00;99070.97;2074629;28;20310;-77
2021/09/13 02:32:56;;;;;;;40.90;36.47;;;;;;;14.92;100.00;99071.63;2074880;28;20258;-77
2021/09/13 02:34:01;;;;;;;48.22;37.20;;;;;;;14.89;100.00;99071.47;2082675;28;20187;-76
2021/09/13 02:35:05;;;;;;;44.00;36.72;;;;;;;14.90;100.00;99070.38;2074817;28;20193;-77
2021/09/13 02:36:08;;;;;;;44.78;37.28;;;;;;;14.88;100.00;99069.91;2082653;28;20629;-77
2021/09/13 02:37:11;;;;;;;43.90;37.03;;;;;;;14.90;100.00;99070.38;2074917;28;20196;-77
2021/09/13 02:38:14;;;;;;;47.67;37.08;;;;;;;14.88;100.00;99067.22;2074601;28;20728;-76
2021/09/13 02:39:15;;;;;;;43.05;36.25;;;;;;;14.88;100.00;99069.91;2074311;28;20224;-77
2021/09/13 02:40:21;;;;;;;45.70;37.53;;;;;;;14.87;100.00;99073.72;2074974;28;20686;-77
2021/09/13 02:41:22;;;;;;;42.45;35.70;;;;;;;14.88;100.00;99069.91;2082731;28;20530;-76
2021/09/13 02:42:26;;;;;;;44.90;36.87;;;;;;;14.87;100.00;99068.34;2082200;28;20254;-77
2021/09/13 02:43:27;;;;;;;41.38;35.50;;;;;;;14.90;100.00;99067.69;2083068;28;20199;-78
2021/09/13 02:44:32;;;;;;;47.15;38.25;;;;;;;14.89;100.00;99071.47;2082771;28;20192;-79
2021/09/13 02:45:36;;;;;;;49.75;41.55;;;;;;;14.86;100.00;99072.16;2075022;28;20259;-78
2021/09/13 02:46:40;;;;;;;51.75;42.70;;;;;;;14.85;100.00;99068.66;2082572;28;20196;-78
2021/09/13 02:47:42;;;;;;;47.53;42.38;;;;;;;14.81;100.00;99062.34;2074621;28;20224;-79
2021/09/13 02:48:45;;;;;;;49.58;43.67;;;;;;;14.79;100.00;99063.78;2082623;28;20242;-78
2021/09/13 02:49:50;;;;;;;52.67;44.75;;;;;;;14.77;100.00;99063.31;2082690;28;20223;-78
2021/09/13 02:50:53;;;;;;;50.40;45.17;;;;;;;14.73;100.00;99048.97;2074977;28;20201;-78
2021/09/13 02:51:54;;;;;;;51.08;45.17;;;;;;;14.72;100.00;99063.50;2074250;28;20314;-78
2021/09/13 02:52:58;;;;;;;52.70;45.37;;;;;;;14.69;100.00;99055.00;2074393;28;20244;-79
2021/09/13 02:53:59;;;;;;;52.63;46.38;;;;;;;14.68;100.00;99061.47;2074863;28;20204;-79
2021/09/13 02:55:01;;;;;;;51.67;46.00;;;;;;;14.67;100.00;99065.25;2082515;28;20187;-79
2021/09/13 02:56:03;;;;;;;50.85;44.67;;;;;;;14.67;100.00;99061.78;2074460;28;20208;-78
2021/09/13 02:57:09;;;;;;;53.95;46.33;;;;;;;14.66;100.00;99062.88;2074905;28;20192;-78
2021/09/13 02:58:11;;;;;;;51.33;45.60;;;;;;;14.65;100.00;99066.69;2082960;28;20188;-78
2021/09/13 02:59:15;;;;;;;50.28;43.75;;;;;;;14.64;100.00;99071.28;2091480;28;20187;-79
2021/09/13 03:00:17;;;;;;;53.67;44.45;;;;;;;14.64;100.00;99063.22;2082439;28;20215;-78
2021/09/13 03:01:35;;;;;;;50.90;45.25;;;;;;;14.63;100.00;99063.53;2075816;28;20211;-78
2021/09/13 03:02:37;;;;;;;49.97;43.38;;;;;;;14.63;100.00;99071.59;2073665;28;20208;-78
2021/09/13 03:03:41;;;;;;;52.53;44.45;;;;;;;14.63;100.00;99069.69;2082420;28;20681;-78
2021/09/13 03:04:44;;;;;;;53.85;45.30;;;;;;;14.64;100.00;99076.66;2074722;28;20291;-78
2021/09/13 03:05:48;;;;;;;51.33;43.78;;;;;;;14.61;100.00;99071.13;2074680;28;20551;-78
2021/09/13 03:06:52;;;;;;;49.30;43.38;;;;;;;14.64;100.00;99073.19;2082435;28;20195;-78
2021/09/13 03:07:55;;;;;;;51.97;44.78;;;;;;;14.64;100.00;99076.66;2082392;28;20741;-79
2021/09/13 03:08:58;;;;;;;47.88;42.60;;;;;;;14.65;100.00;99072.06;2074741;28;20616;-78
2021/09/13 03:10:09;;;;;;;49.03;43.05;;;;;;;14.64;100.00;99070.50;2082651;28;20688;-78
2021/09/13 03:11:11;;;;;;;49.65;42.25;;;;;;;14.67;100.00;99076.00;2082644;28;20686;-78
2021/09/13 03:12:13;;;;;;;49.97;41.08;;;;;;;14.68;100.00;99079.47;2074279;28;20725;-78
2021/09/13 03:13:19;;;;;;;46.28;41.30;;;;;;;14.65;100.00;99072.84;2082428;28;20203;-78
2021/09/13 03:14:21;;;;;;;47.88;42.65;;;;;;;14.68;100.00;99082.16;2074244;28;20196;-78
2021/09/13 03:15:22;;;;;;;46.85;40.97;;;;;;;14.66;100.00;99079.78;2082014;28;20203;-78
2021/09/13 03:16:27;;;;;;;48.50;42.35;;;;;;;14.66;100.00;99077.09;2074711;28;20227;-78
2021/09/13 03:17:29;;;;;;;47.50;42.40;;;;;;;14.67;100.00;99081.38;2082388;28;20756;-78
2021/09/13 03:18:33;;;;;;;47.58;42.17;;;;;;;14.69;100.00;99083.75;2074383;28;20193;-78
2021/09/13 03:19:37;;;;;;;47.70;42.28;;;;;;;14.68;100.00;99077.59;2074534;28;20682;-78
2021/09/13 03:20:41;;;;;;;46.42;40.25;;;;;;;14.69;100.00;99078.38;2074404;28;20644;-79
2021/09/13 03:21:41;;;;;;;46.15;41.15;;;;;;;14.66;100.00;99074.41;2082469;28;20187;-78
2021/09/13 03:22:45;;;;;;;53.72;42.08;;;;;;;14.68;100.00;99084.84;2082345;28;20348;-78
2021/09/13 03:23:46;;;;;;;48.35;40.83;;;;;;;14.68;100.00;99087.53;2081959;28;20203;-78
2021/09/13 03:24:49;;;;;;;44.90;38.90;;;;;;;14.68;100.00;99082.97;2082516;28;20220;-78
2021/09/13 03:25:50;;;;;;;47.92;40.78;;;;;;;14.68;100.00;99091.03;2082245;28;20211;-78
2021/09/13 03:26:51;;;;;;;45.67;40.00;;;;;;;14.67;100.00;99089.41;2074091;28;20199;-78
2021/09/13 03:27:53;;;;;;;46.90;41.83;;;;;;;14.68;100.00;99088.34;2074286;28;20265;-79
2021/09/13 03:28:56;;;;;;;45.50;40.47;;;;;;;14.67;100.00;99086.72;2074160;28;20223;-79
2021/09/13 03:29:57;;;;;;;49.22;39.58;;;;;;;14.66;100.00;99082.47;2082430;28;20626;-78
2021/09/13 03:30:59;;;;;;;50.57;40.80;;;;;;;14.67;100.00;99085.94;2082236;28;20219;-78
2021/09/13 03:32:00;;;;;;;47.75;40.33;;;;;;;14.65;100.00;99080.13;2074106;28;20216;-79
2021/09/13 03:33:02;;;;;;;53.28;42.08;;;;;;;14.64;100.00;99082.00;2074081;28;20655;-78
2021/09/13 03:34:05;;;;;;;51.03;42.40;;;;;;;14.63;100.00;99085.03;2082585;28;20187;-78
2021/09/13 03:35:08;;;;;;;52.27;41.33;;;;;;;14.61;100.00;99085.34;2091123;28;20179;-78
2021/09/13 03:36:10;;;;;;;45.90;40.35;;;;;;;14.61;100.00;99088.03;2082290;28;20599;-78
2021/09/13 03:37:11;;;;;;;45.17;40.25;;;;;;;14.59;100.00;99087.56;2074179;28;20713;-78
2021/09/13 03:38:13;;;;;;;51.17;41.27;;;;;;;14.59;100.00;99082.19;2074053;28;20568;-79
2021/09/13 03:39:14;;;;;;;48.95;40.90;;;;;;;14.58;100.00;99075.25;2081955;28;20235;-78
2021/09/13 03:40:16;;;;;;;46.40;41.28;;;;;;;14.55;100.00;99081.25;2074141;28;20220;-78
2021/09/13 03:41:17;;;;;;;53.58;42.05;;;;;;;14.54;100.00;99074.31;2073973;28;20196;-78
2021/09/13 03:42:18;;;;;;;47.63;42.47;;;;;;;14.52;100.00;99076.53;2074009;28;20185;-79
2021/09/13 03:43:19;;;;;;;56.05;41.30;;;;;;;14.51;100.00;99074.97;2074028;28;20200;-79
2021/09/13 03:44:22;;;;;;;50.67;41.37;;;;;;;14.51;100.00;99077.66;2074369;28;20220;-78
2021/09/13 03:45:24;;;;;;;52.58;43.25;;;;;;;14.52;100.00;99081.91;2074081;28;20200;-79
2021/09/13 03:46:58;;;;;;;46.00;40.58;;;;;;;14.55;100.00;99086.63;2058352;28;20281;-78
2021/09/13 03:48:10;;;;;;;52.92;41.53;;;;;;;14.57;100.00;99086.31;2082183;28;20280;-78
2021/09/13 03:49:17;;;;;;;47.53;40.67;;;;;;;14.56;100.00;99082.84;2074540;28;20203;-79
2021/09/13 03:50:21;;;;;;;52.60;42.00;;;;;;;14.57;100.00;99087.09;2074403;28;20291;-79
2021/09/13 03:51:27;;;;;;;47.63;39.45;;;;;;;14.60;100.00;99078.41;2074283;28;20196;-78
2021/09/13 03:52:31;;;;;;;46.15;41.10;;;;;;;14.61;100.00;99081.88;2081959;28;20308;-78
2021/09/13 03:53:35;;;;;;;48.42;40.63;;;;;;;14.59;100.00;99079.50;2074053;28;20196;-78
2021/09/13 03:54:38;;;;;;;49.35;41.47;;;;;;;14.64;100.00;99084.69;2074348;28;20196;-78
2021/09/13 03:55:42;;;;;;;46.40;40.55;;;;;;;14.63;100.00;99087.72;2074305;28;20210;-78
2021/09/13 03:56:46;;;;;;;50.35;42.42;;;;;;;14.62;100.00;99084.25;2074241;28;20199;-78
2021/09/13 03:57:50;;;;;;;50.95;42.70;;;;;;;14.65;100.00;99082.81;2082155;28;20189;-78
2021/09/13 03:58:55;;;;;;;48.53;41.03;;;;;;;14.64;100.00;99079.34;2082082;28;20207;-78
2021/09/13 04:00:00;;;;;;;54.50;41.60;;;;;;;14.65;100.00;99088.97;2074152;28;20259;-79
2021/09/13 04:01:04;;;;;;;50.20;41.65;;;;;;;14.63;100.00;99082.34;2082726;28;20634;-78
2021/09/13 04:02:05;;;;;;;53.97;42.63;;;;;;;14.64;100.00;99090.06;2082084;28;20196;-78
2021/09/13 04:03:12;;;;;;;50.75;42.30;;;;;;;14.67;100.00;99088.63;2073998;28;20740;-78
2021/09/13 04:04:15;;;;;;;51.13;42.35;;;;;;;14.65;100.00;99088.97;2074462;28;20688;-79
2021/09/13 04:05:20;;;;;;;51.78;40.92;;;;;;;14.66;100.00;99087.06;2081982;28;20188;-78
2021/09/13 04:06:39;;;;;;;51.05;41.30;;;;;;;14.65;100.00;99083.59;2081917;28;20204;-79
2021/09/13 04:08:18;;;;;;;47.13;39.88;;;;;;;14.65;100.00;99082.81;2079356;28;20654;-78
2021/09/13 04:09:44;;;;;;;58.72;41.63;;;;;;;14.65;100.00;99080.91;2077044;28;20237;-79
2021/09/13 04:11:06;;;;;;;51.33;40.17;;;;;;;14.65;100.00;99082.81;2081867;28;20191;-78
2021/09/13 04:12:23;;;;;;;50.40;39.80;;;;;;;14.65;100.00;99086.28;2076908;28;20223;-78
2021/09/13 04:13:47;;;;;;;45.38;40.25;;;;;;;14.63;100.00;99085.03;2081722;28;20634;-79
2021/09/13 04:14:58;;;;;;;49.17;40.22;;;;;;;14.63;100.00;99083.13;2074162;28;20201;-79
2021/09/13 04:16:18;;;;;;;47.30;40.05;;;;;;;14.60;100.00;99081.09;2085040;28;20175;-78
2021/09/13 04:17:46;;;;;;;47.58;40.17;;;;;;;14.61;100.00;99087.25;2067267;28;20674;-79
2021/09/13 04:19:13;;;;;;;50.83;40.40;;;;;;;14.60;100.00;99077.63;2052522;28;20237;-78
2021/09/13 04:20:34;;;;;;;48.83;39.25;;;;;;;14.64;100.00;99087.38;2081888;28;20196;-78
2021/09/13 04:21:55;;;;;;;49.80;40.47;;;;;;;14.62;100.00;99086.13;2085017;28;20185;-79
2021/09/13 04:23:13;;;;;;;53.40;38.83;;;;;;;14.62;100.00;99080.78;2082032;28;20206;-79
2021/09/13 04:24:30;;;;;;;49.85;41.25;;;;;;;14.62;100.00;99084.25;2075789;28;20279;-79
2021/09/13 04:25:54;;;;;;;51.03;40.47;;;;;;;14.61;100.00;99076.50;2077085;28;20184;-79
2021/09/13 04:27:21;;;;;;;48.50;40.35;;;;;;;14.61;100.00;99085.34;2081711;28;20204;-79
2021/09/13 04:28:44;;;;;;;50.38;40.05;;;;;;;14.63;100.00;99085.81;2076717;28;20191;-79
2021/09/13 04:30:10;;;;;;;47.10;39.13;;;;;;;14.65;100.00;99088.16;2076791;28;20563;-79
2021/09/13 04:31:42;;;;;;;47.20;38.70;;;;;;;14.66;100.00;99090.53;2081863;28;20249;-79
2021/09/13 04:33:09;;;;;;;48.67;39.95;;;;;;;14.67;100.00;99091.31;2077258;28;20266;-79
2021/09/13 04:34:30;;;;;;;45.35;39.10;;;;;;;14.69;100.00;99089.13;2084835;28;20176;-79
2021/09/13 04:35:59;;;;;;;50.92;39.65;;;;;;;14.69;100.00;99092.59;2081894;28;20210;-79
2021/09/13 04:37:12;;;;;;;48.20;40.03;;;;;;;14.67;100.00;99092.09;2075314;28;20721;-79
2021/09/13 04:38:32;;;;;;;46.55;39.80;;;;;;;14.69;100.00;99089.13;2084805;28;20638;-79
2021/09/13 04:39:43;;;;;;;50.60;41.47;;;;;;;14.69;100.00;99092.59;2081697;28;20239;-79
2021/09/13 04:41:13;;;;;;;52.17;40.47;;;;;;;14.70;100.00;99096.06;2068674;28;20205;-79
2021/09/13 04:42:37;;;;;;;48.10;39.08;;;;;;;14.70;100.00;99094.16;2081572;28;20187;-79
2021/09/13 04:44:08;;;;;;;45.00;39.05;;;;;;;14.76;100.00;99104.72;2076967;28;20678;-80
2021/09/13 04:45:36;;;;;;;46.08;38.65;;;;;;;14.75;100.00;99100.47;2074522;28;20199;-80
2021/09/13 04:47:06;;;;;;;52.35;40.05;;;;;;;14.73;100.00;99098.09;2081603;28;20203;-80
2021/09/13 04:48:37;;;;;;;51.55;39.42;;;;;;;14.74;100.00;99099.66;2061503;28;20197;-80
2021/09/13 04:50:12;;;;;;;46.38;38.55;;;;;;;14.75;100.00;99105.81;2036722;29;20293;-80
2021/09/13 04:51:32;;;;;;;53.67;39.08;;;;;;;14.73;100.00;99100.78;2081225;28;20191;-80
2021/09/13 04:52:57;;;;;;;48.03;39.72;;;;;;;14.75;100.00;99106.63;2076179;28;20274;-80
2021/09/13 04:54:00;;;;;;;49.45;39.92;;;;;;;14.74;100.00;99102.34;2081637;28;20199;-80
2021/09/13 04:55:02;;;;;;;48.03;40.67;;;;;;;14.74;100.00;99098.88;2073731;28;20563;-80
2021/09/13 04:56:03;;;;;;;45.70;39.35;;;;;;;14.75;100.00;99103.13;2081732;28;20192;-80
2021/09/13 04:57:06;;;;;;;45.13;38.10;;;;;;;14.77;100.00;99106.28;2081670;28;20191;-80
2021/09/13 04:58:07;;;;;;;55.85;40.20;;;;;;;14.76;100.00;99107.41;2073468;28;20204;-79
2021/09/13 04:59:10;;;;;;;48.23;39.97;;;;;;;14.76;100.00;99102.03;2081679;28;20194;-79